createdAt,value
2022-08-12T00:00:59.807Z,21.67
2022-08-12T00:02:03.696Z,21.62
2022-08-12T00:02:59.775Z,21.55
2022-08-12T00:03:59.737Z,21.56
2022-08-12T00:04:59.724Z,21.48
2022-08-12T00:06:04.865Z,21.44
2022-08-12T00:06:59.692Z,21.45
2022-08-12T00:07:59.680Z,21.41
2022-08-12T00:08:59.665Z,21.41
2022-08-12T00:09:59.653Z,21.32
2022-08-12T00:10:59.650Z,21.34
2022-08-12T00:11:59.620Z,21.37
2022-08-12T00:12:59.611Z,21.30
2022-08-12T00:13:59.586Z,21.34
2022-08-12T00:14:59.566Z,21.37
2022-08-12T00:15:59.558Z,21.32
2022-08-12T00:16:59.584Z,21.28
2022-08-12T00:17:59.526Z,21.28
2022-08-12T00:18:59.516Z,21.23
2022-08-12T00:19:59.500Z,21.19
2022-08-12T00:20:59.474Z,21.25
2022-08-12T00:21:59.488Z,21.16
2022-08-12T00:23:00.164Z,21.08
2022-08-12T00:23:59.430Z,21.05
2022-08-12T00:24:59.428Z,21.00
2022-08-12T00:26:21.630Z,20.93
2022-08-12T00:26:59.408Z,20.89
2022-08-12T00:27:59.389Z,20.77
2022-08-12T00:28:59.357Z,20.77
2022-08-12T00:29:59.337Z,20.75
2022-08-12T00:30:59.320Z,20.68
2022-08-12T00:32:00.295Z,20.71
2022-08-12T00:32:59.599Z,20.73
2022-08-12T00:33:59.294Z,20.73
2022-08-12T00:34:59.271Z,20.75
2022-08-12T00:35:59.238Z,20.68
2022-08-12T00:37:04.633Z,20.68
2022-08-12T00:37:59.214Z,20.67
2022-08-12T00:38:59.224Z,20.67
2022-08-12T00:39:59.201Z,20.61
2022-08-12T00:40:59.167Z,20.67
2022-08-12T00:41:59.146Z,20.70
2022-08-12T00:42:59.155Z,20.61
2022-08-12T00:43:59.128Z,20.53
2022-08-12T00:44:59.100Z,20.53
2022-08-12T00:45:59.107Z,20.68
2022-08-12T00:46:59.079Z,20.65
2022-08-12T00:47:59.060Z,20.58
2022-08-12T00:48:59.052Z,20.65
2022-08-12T00:49:59.073Z,20.53
2022-08-12T00:50:59.029Z,20.58
2022-08-12T00:51:58.989Z,20.55
2022-08-12T00:52:58.993Z,20.50
2022-08-12T00:53:58.951Z,20.50
2022-08-12T00:54:58.973Z,20.50
2022-08-12T00:55:58.942Z,20.46
2022-08-12T00:56:58.918Z,20.36
2022-08-12T00:57:58.894Z,20.39
2022-08-12T00:58:58.885Z,20.29
2022-08-12T00:59:58.871Z,20.32
2022-08-12T01:00:58.898Z,20.37
2022-08-12T01:02:04.265Z,20.33
2022-08-12T01:02:58.831Z,20.29
2022-08-12T01:03:59.456Z,20.33
2022-08-12T01:04:58.798Z,20.33
2022-08-12T01:05:58.784Z,20.34
2022-08-12T01:06:58.745Z,20.37
2022-08-12T01:07:58.733Z,20.34
2022-08-12T01:08:58.720Z,20.37
2022-08-12T01:09:58.702Z,20.39
2022-08-12T01:10:58.711Z,20.36
2022-08-12T01:11:58.690Z,20.33
2022-08-12T01:13:07.575Z,20.33
2022-08-12T01:13:58.649Z,20.29
2022-08-12T01:14:58.622Z,20.30
2022-08-12T01:15:58.603Z,20.18
2022-08-12T01:16:58.608Z,20.25
2022-08-12T01:17:58.582Z,20.27
2022-08-12T01:18:58.552Z,20.37
2022-08-12T01:19:58.553Z,20.29
2022-08-12T01:20:58.521Z,20.37
2022-08-12T01:21:58.522Z,20.36
2022-08-12T01:22:58.500Z,20.44
2022-08-12T01:23:58.485Z,20.50
2022-08-12T01:24:58.461Z,20.55
2022-08-12T01:25:58.434Z,20.55
2022-08-12T01:26:58.430Z,20.52
2022-08-12T01:27:58.406Z,20.52
2022-08-12T01:28:58.738Z,20.50
2022-08-12T01:29:58.376Z,20.52
2022-08-12T01:30:58.358Z,20.56
2022-08-12T01:31:58.336Z,20.56
2022-08-12T01:32:58.324Z,20.58
2022-08-12T01:33:58.305Z,20.50
2022-08-12T01:34:58.314Z,20.52
2022-08-12T01:36:08.531Z,20.41
2022-08-12T01:36:58.260Z,20.29
2022-08-12T01:37:58.252Z,20.26
2022-08-12T01:38:58.231Z,20.30
2022-08-12T01:40:33.684Z,20.18
2022-08-12T01:40:58.210Z,20.22
2022-08-12T01:41:58.176Z,20.17
2022-08-12T01:42:58.156Z,20.08
2022-08-12T01:43:58.144Z,20.14
2022-08-12T01:44:58.124Z,20.11
2022-08-12T01:45:58.128Z,20.15
2022-08-12T01:46:58.094Z,20.25
2022-08-12T01:47:58.084Z,20.18
2022-08-12T01:48:58.063Z,20.17
2022-08-12T01:49:58.070Z,20.15
2022-08-12T01:51:01.239Z,19.99
2022-08-12T01:52:20.664Z,20.09
2022-08-12T01:52:58.000Z,20.00
2022-08-12T01:53:58.004Z,20.04
2022-08-12T01:54:57.984Z,19.99
2022-08-12T01:55:57.970Z,19.93
2022-08-12T01:56:57.929Z,19.92
2022-08-12T01:58:01.396Z,19.81
2022-08-12T01:58:57.897Z,19.90
2022-08-12T01:59:57.882Z,19.82
2022-08-12T02:00:57.935Z,19.79
2022-08-12T02:01:57.897Z,19.68
2022-08-12T02:02:57.833Z,19.72
2022-08-12T02:03:57.818Z,19.62
2022-08-12T02:04:57.799Z,19.63
2022-08-12T02:05:57.823Z,19.72
2022-08-12T02:06:57.766Z,19.79
2022-08-12T02:07:57.769Z,19.71
2022-08-12T02:08:57.733Z,19.81
2022-08-12T02:09:57.718Z,19.79
2022-08-12T02:10:57.701Z,19.79
2022-08-12T02:11:58.837Z,19.78
2022-08-12T02:12:57.667Z,19.86
2022-08-12T02:13:57.656Z,19.75
2022-08-12T02:14:57.673Z,19.84
2022-08-12T02:15:57.627Z,19.81
2022-08-12T02:16:57.600Z,19.87
2022-08-12T02:17:57.608Z,19.79
2022-08-12T02:18:57.566Z,19.84
2022-08-12T02:19:57.549Z,19.78
2022-08-12T02:20:57.556Z,19.75
2022-08-12T02:21:57.513Z,19.81
2022-08-12T02:22:57.508Z,19.74
2022-08-12T02:23:57.489Z,19.72
2022-08-12T02:24:57.466Z,19.77
2022-08-12T02:25:57.465Z,19.75
2022-08-12T02:26:57.446Z,19.77
2022-08-12T02:27:57.416Z,19.82
2022-08-12T02:28:57.399Z,19.72
2022-08-12T02:29:57.407Z,19.77
2022-08-12T02:30:57.365Z,19.74
2022-08-12T02:31:57.345Z,19.67
2022-08-12T02:32:57.338Z,19.68
2022-08-12T02:33:57.314Z,19.63
2022-08-12T02:34:57.298Z,19.64
2022-08-12T02:35:57.298Z,19.56
2022-08-12T02:36:57.562Z,19.62
2022-08-12T02:37:57.257Z,19.60
2022-08-12T02:38:57.228Z,19.57
2022-08-12T02:39:57.251Z,19.63
2022-08-12T02:40:57.212Z,19.57
2022-08-12T02:41:57.182Z,19.56
2022-08-12T02:42:57.185Z,19.49
2022-08-12T02:43:57.146Z,19.42
2022-08-12T02:44:57.135Z,19.49
2022-08-12T02:45:57.114Z,19.44
2022-08-12T02:46:57.090Z,19.47
2022-08-12T02:47:59.770Z,19.41
2022-08-12T02:48:57.081Z,19.39
2022-08-12T02:49:57.053Z,19.44
2022-08-12T02:50:57.025Z,19.39
2022-08-12T02:51:57.009Z,19.34
2022-08-12T02:52:57.018Z,19.34
2022-08-12T02:54:04.365Z,19.26
2022-08-12T02:54:56.956Z,19.35
2022-08-12T02:55:56.942Z,19.22
2022-08-12T02:56:56.925Z,19.22
2022-08-12T02:57:56.924Z,19.26
2022-08-12T02:58:56.906Z,19.17
2022-08-12T02:59:56.876Z,19.17
2022-08-12T03:00:57.044Z,19.22
2022-08-12T03:01:56.842Z,19.19
2022-08-12T03:02:56.821Z,19.24
2022-08-12T03:03:56.813Z,19.22
2022-08-12T03:04:56.803Z,19.22
2022-08-12T03:05:56.779Z,19.26
2022-08-12T03:06:56.752Z,19.23
2022-08-12T03:08:00.054Z,19.31
2022-08-12T03:08:56.721Z,19.32
2022-08-12T03:10:04.351Z,19.37
2022-08-12T03:10:56.848Z,19.32
2022-08-12T03:11:56.761Z,19.26
2022-08-12T03:12:56.654Z,19.24
2022-08-12T03:13:56.639Z,19.22
2022-08-12T03:14:56.636Z,19.24
2022-08-12T03:15:56.601Z,19.24
2022-08-12T03:16:56.606Z,19.13
2022-08-12T03:18:25.549Z,19.15
2022-08-12T03:18:56.570Z,19.07
2022-08-12T03:20:09.853Z,19.05
2022-08-12T03:20:56.548Z,18.91
2022-08-12T03:22:09.122Z,18.88
2022-08-12T03:22:56.485Z,18.88
2022-08-12T03:23:56.464Z,18.91
2022-08-12T03:24:56.450Z,19.04
2022-08-12T03:25:56.438Z,18.97
2022-08-12T03:27:00.427Z,18.96
2022-08-12T03:27:56.401Z,18.97
2022-08-12T03:28:56.379Z,18.98
2022-08-12T03:29:56.364Z,19.00
2022-08-12T03:30:56.943Z,18.96
2022-08-12T03:31:56.351Z,18.96
2022-08-12T03:32:56.310Z,18.88
2022-08-12T03:34:01.402Z,18.93
2022-08-12T03:34:56.277Z,18.85
2022-08-12T03:35:56.260Z,18.81
2022-08-12T03:36:56.264Z,18.79
2022-08-12T03:37:56.229Z,18.88
2022-08-12T03:38:56.211Z,18.79
2022-08-12T03:39:56.259Z,18.81
2022-08-12T03:40:56.181Z,18.81
2022-08-12T03:41:57.921Z,18.82
2022-08-12T03:42:56.142Z,18.82
2022-08-12T03:43:56.127Z,18.89
2022-08-12T03:44:56.124Z,18.89
2022-08-12T03:45:56.804Z,18.94
2022-08-12T03:46:56.090Z,18.89
2022-08-12T03:47:56.072Z,18.93
2022-08-12T03:48:56.040Z,18.93
2022-08-12T03:49:56.021Z,18.93
2022-08-12T03:50:56.019Z,18.91
2022-08-12T03:51:55.990Z,18.88
2022-08-12T03:52:55.967Z,18.86
2022-08-12T03:53:55.953Z,18.89
2022-08-12T03:54:55.954Z,18.91
2022-08-12T03:55:55.919Z,18.97
2022-08-12T03:56:55.918Z,19.01
2022-08-12T03:57:55.894Z,19.07
2022-08-12T03:58:55.865Z,19.01
2022-08-12T03:59:55.853Z,18.93
2022-08-12T04:00:55.917Z,18.98
2022-08-12T04:01:55.814Z,19.04
2022-08-12T04:02:55.807Z,18.98
2022-08-12T04:03:55.786Z,19.01
2022-08-12T04:04:55.783Z,18.98
2022-08-12T04:05:56.777Z,19.01
2022-08-12T04:06:55.731Z,18.91
2022-08-12T04:07:58.093Z,18.91
2022-08-12T04:08:55.697Z,18.94
2022-08-12T04:09:55.683Z,18.83
2022-08-12T04:10:55.681Z,18.85
2022-08-12T04:11:55.641Z,18.82
2022-08-12T04:12:55.634Z,18.79
2022-08-12T04:13:55.607Z,18.79
2022-08-12T04:14:55.598Z,18.88
2022-08-12T04:15:55.574Z,18.71
2022-08-12T04:16:55.591Z,18.76
2022-08-12T04:18:07.597Z,18.75
2022-08-12T04:18:55.527Z,18.67
2022-08-12T04:19:55.510Z,18.76
2022-08-12T04:20:55.499Z,18.74
2022-08-12T04:22:03.062Z,18.68
2022-08-12T04:22:55.536Z,18.68
2022-08-12T04:23:55.501Z,18.67
2022-08-12T04:24:55.426Z,18.66
2022-08-12T04:25:55.406Z,18.63
2022-08-12T04:26:55.392Z,18.71
2022-08-12T04:27:55.373Z,18.74
2022-08-12T04:28:55.384Z,18.71
2022-08-12T04:30:17.243Z,18.75
2022-08-12T04:30:55.323Z,18.74
2022-08-12T04:31:55.300Z,18.75
2022-08-12T04:32:55.298Z,18.88
2022-08-12T04:33:55.303Z,18.83
2022-08-12T04:34:55.274Z,18.81
2022-08-12T04:35:55.232Z,18.85
2022-08-12T04:36:55.219Z,18.85
2022-08-12T04:37:58.451Z,18.88
2022-08-12T04:38:59.442Z,18.89
2022-08-12T04:39:55.264Z,18.83
2022-08-12T04:40:55.171Z,18.82
2022-08-12T04:41:58.451Z,18.85
2022-08-12T04:42:55.113Z,18.85
2022-08-12T04:44:02.089Z,18.91
2022-08-12T04:44:55.077Z,18.93
2022-08-12T04:45:55.100Z,18.91
2022-08-12T04:46:55.046Z,18.93
2022-08-12T04:47:55.029Z,18.89
2022-08-12T04:48:55.016Z,18.85
2022-08-12T04:49:55.055Z,18.88
2022-08-12T04:50:55.087Z,18.85
2022-08-12T04:51:59.051Z,18.88
2022-08-12T04:52:54.946Z,18.82
2022-08-12T04:53:54.936Z,18.79
2022-08-12T04:54:55.027Z,18.88
2022-08-12T04:55:54.924Z,18.94
2022-08-12T04:57:03.071Z,18.88
2022-08-12T04:57:54.898Z,18.88
2022-08-12T04:58:54.850Z,18.88
2022-08-12T04:59:54.883Z,18.85
2022-08-12T05:00:54.868Z,18.97
2022-08-12T05:01:54.996Z,18.97
2022-08-12T05:02:54.847Z,19.08
2022-08-12T05:03:54.762Z,19.08
2022-08-12T05:04:54.808Z,19.15
2022-08-12T05:05:54.753Z,19.13
2022-08-12T05:06:54.716Z,19.27
2022-08-12T05:07:55.280Z,19.26
2022-08-12T05:08:54.721Z,19.37
2022-08-12T05:09:59.058Z,19.41
2022-08-12T05:10:54.648Z,19.42
2022-08-12T05:11:54.653Z,19.56
2022-08-12T05:12:54.686Z,19.56
2022-08-12T05:13:54.591Z,19.59
2022-08-12T05:14:54.587Z,19.59
2022-08-12T05:16:05.179Z,19.67
2022-08-12T05:16:54.598Z,19.77
2022-08-12T05:17:54.573Z,19.74
2022-08-12T05:18:54.508Z,19.89
2022-08-12T05:19:54.540Z,19.86
2022-08-12T05:20:54.476Z,19.96
2022-08-12T05:21:54.481Z,20.04
2022-08-12T05:22:57.960Z,20.11
2022-08-12T05:23:54.577Z,20.00
2022-08-12T05:24:54.413Z,20.05
2022-08-12T05:25:54.390Z,20.26
2022-08-12T05:26:54.413Z,20.17
2022-08-12T05:27:57.954Z,20.32
2022-08-12T05:28:54.361Z,20.26
2022-08-12T05:30:06.407Z,20.36
2022-08-12T05:30:54.364Z,20.41
2022-08-12T05:31:54.393Z,20.33
2022-08-12T05:32:54.283Z,20.41
2022-08-12T05:33:54.285Z,20.49
2022-08-12T05:34:54.243Z,20.49
2022-08-12T05:35:54.231Z,20.53
2022-08-12T05:36:54.419Z,20.63
2022-08-12T05:37:54.201Z,20.56
2022-08-12T05:38:54.176Z,20.64
2022-08-12T05:39:54.199Z,20.77
2022-08-12T05:40:54.273Z,20.68
2022-08-12T05:41:54.134Z,20.82
2022-08-12T05:42:54.128Z,20.77
2022-08-12T05:43:54.120Z,20.82
2022-08-12T05:44:54.202Z,20.90
2022-08-12T05:45:54.082Z,20.95
2022-08-12T05:46:54.060Z,20.89
2022-08-12T05:47:54.452Z,21.00
2022-08-12T05:48:54.023Z,20.98
2022-08-12T05:49:53.997Z,21.04
2022-08-12T05:50:54.001Z,21.07
2022-08-12T05:51:53.989Z,21.16
2022-08-12T05:52:54.097Z,21.19
2022-08-12T05:53:53.970Z,21.19
2022-08-12T05:54:57.849Z,21.28
2022-08-12T05:55:53.900Z,21.35
2022-08-12T05:56:53.884Z,21.32
2022-08-12T05:57:53.871Z,21.37
2022-08-12T05:58:53.889Z,21.37
2022-08-12T05:59:53.841Z,21.41
2022-08-12T06:00:53.845Z,21.44
2022-08-12T06:02:09.254Z,21.47
2022-08-12T06:02:53.833Z,21.43
2022-08-12T06:03:53.774Z,21.40
2022-08-12T06:04:53.848Z,21.44
2022-08-12T06:05:55.570Z,21.53
2022-08-12T06:06:53.841Z,21.55
2022-08-12T06:08:01.258Z,21.56
2022-08-12T06:08:53.764Z,21.53
2022-08-12T06:09:53.782Z,21.67
2022-08-12T06:10:53.739Z,21.73
2022-08-12T06:12:05.230Z,21.73
2022-08-12T06:12:53.627Z,21.73
2022-08-12T06:13:54.746Z,21.80
2022-08-12T06:14:53.607Z,21.82
2022-08-12T06:15:53.579Z,21.85
2022-08-12T06:16:53.689Z,22.01
2022-08-12T06:17:53.648Z,21.98
2022-08-12T06:18:53.548Z,22.12
2022-08-12T06:20:27.355Z,22.09
2022-08-12T06:20:53.860Z,22.07
2022-08-12T06:21:53.577Z,22.15
2022-08-12T06:22:54.597Z,22.27
2022-08-12T06:23:53.529Z,22.21
2022-08-12T06:24:53.493Z,22.33
2022-08-12T06:25:53.429Z,22.30
2022-08-12T06:26:53.426Z,22.40
2022-08-12T06:28:07.606Z,22.43
2022-08-12T06:28:53.396Z,22.49
2022-08-12T06:30:08.847Z,22.53
2022-08-12T06:31:22.147Z,22.59
2022-08-12T06:31:53.335Z,22.62
2022-08-12T06:33:18.590Z,22.64
2022-08-12T06:33:59.774Z,22.70
2022-08-12T06:35:27.249Z,22.80
2022-08-12T06:35:57.534Z,22.80
2022-08-12T06:36:53.251Z,22.88
2022-08-12T06:37:56.982Z,22.98
2022-08-12T06:38:53.244Z,22.89
2022-08-12T06:39:53.235Z,22.99
2022-08-12T06:40:53.207Z,23.01
2022-08-12T06:42:10.671Z,23.10
2022-08-12T06:42:53.159Z,23.06
2022-08-12T06:44:04.406Z,23.18
2022-08-12T06:44:53.135Z,23.10
2022-08-12T06:45:53.128Z,23.25
2022-08-12T06:46:53.115Z,23.26
2022-08-12T06:47:53.084Z,23.34
2022-08-12T06:48:53.075Z,23.26
2022-08-12T06:49:53.052Z,23.39
2022-08-12T06:50:53.064Z,23.60
2022-08-12T06:51:54.491Z,23.64
2022-08-12T06:52:53.026Z,23.76
2022-08-12T06:53:53.004Z,23.74
2022-08-12T06:54:52.980Z,23.91
2022-08-12T06:55:58.585Z,23.96
2022-08-12T06:58:05.701Z,24.04
2022-08-12T06:58:06.588Z,24.19
2022-08-12T06:58:52.940Z,24.18
2022-08-12T06:59:52.904Z,24.25
2022-08-12T07:00:52.959Z,24.38
2022-08-12T07:01:52.874Z,24.34
2022-08-12T07:02:52.872Z,24.43
2022-08-12T07:03:52.866Z,24.40
2022-08-12T07:04:52.851Z,24.37
2022-08-12T07:05:52.830Z,24.48
2022-08-12T07:06:52.799Z,24.51
2022-08-12T07:07:52.803Z,24.59
2022-08-12T07:08:52.778Z,24.56
2022-08-12T07:10:04.421Z,24.68
2022-08-12T07:10:52.741Z,24.74
2022-08-12T07:11:52.726Z,24.84
2022-08-12T07:12:52.746Z,24.74
2022-08-12T07:14:11.425Z,24.86
2022-08-12T07:14:52.715Z,24.84
2022-08-12T07:15:52.691Z,24.90
2022-08-12T07:16:52.659Z,24.86
2022-08-12T07:17:52.649Z,25.00
2022-08-12T07:18:52.670Z,25.03
2022-08-12T07:19:52.616Z,25.06
2022-08-12T07:20:53.473Z,25.16
2022-08-12T07:21:59.947Z,25.12
2022-08-12T07:22:52.572Z,25.27
2022-08-12T07:23:52.558Z,25.36
2022-08-12T07:24:52.566Z,25.34
2022-08-12T07:25:56.492Z,25.41
2022-08-12T07:26:52.518Z,25.36
2022-08-12T07:27:52.665Z,25.45
2022-08-12T07:28:52.490Z,25.46
2022-08-12T07:29:58.126Z,25.55
2022-08-12T07:30:52.480Z,25.63
2022-08-12T07:31:52.456Z,25.55
2022-08-12T07:32:52.435Z,25.58
2022-08-12T07:33:52.423Z,25.70
2022-08-12T07:34:52.403Z,25.70
2022-08-12T07:35:52.409Z,25.68
2022-08-12T07:36:52.379Z,25.73
2022-08-12T07:37:52.362Z,25.75
2022-08-12T07:38:52.356Z,25.82
2022-08-12T07:39:59.683Z,25.86
2022-08-12T07:40:52.573Z,25.88
2022-08-12T07:41:52.308Z,25.85
2022-08-12T07:42:52.282Z,25.93
2022-08-12T07:43:52.273Z,26.07
2022-08-12T07:44:52.338Z,25.96
2022-08-12T07:45:52.317Z,25.95
2022-08-12T07:46:52.249Z,26.05
2022-08-12T07:47:52.215Z,26.05
2022-08-12T07:48:52.205Z,26.07
2022-08-12T07:50:04.909Z,25.93
2022-08-12T07:50:52.176Z,26.04
2022-08-12T07:51:52.169Z,26.07
2022-08-12T07:52:52.150Z,26.10
2022-08-12T07:54:00.547Z,26.12
2022-08-12T07:54:52.158Z,26.16
2022-08-12T07:55:52.132Z,26.33
2022-08-12T07:56:52.129Z,26.39
2022-08-12T07:57:52.109Z,26.57
2022-08-12T07:58:52.063Z,26.63
2022-08-12T07:59:55.574Z,26.68
2022-08-12T08:00:52.038Z,26.68
2022-08-12T08:01:52.388Z,26.85
2022-08-12T08:02:52.021Z,26.94
2022-08-12T08:03:51.992Z,26.94
2022-08-12T08:04:51.990Z,26.89
2022-08-12T08:05:52.046Z,26.97
2022-08-12T08:06:51.961Z,26.94
2022-08-12T08:07:52.076Z,26.95
2022-08-12T08:08:51.942Z,27.10
2022-08-12T08:09:58.706Z,27.04
2022-08-12T08:10:51.980Z,27.20
2022-08-12T08:11:51.918Z,27.23
2022-08-12T08:12:52.736Z,27.25
2022-08-12T08:13:51.984Z,27.27
2022-08-12T08:14:51.983Z,27.34
2022-08-12T08:16:03.165Z,27.41
2022-08-12T08:16:51.825Z,27.53
2022-08-12T08:17:51.835Z,27.61
2022-08-12T08:18:51.798Z,27.64
2022-08-12T08:20:03.081Z,27.69
2022-08-12T08:20:51.801Z,27.68
2022-08-12T08:21:51.761Z,27.73
2022-08-12T08:22:52.022Z,27.68
2022-08-12T08:23:55.571Z,27.70
2022-08-12T08:24:51.730Z,27.73
2022-08-12T08:25:51.811Z,27.79
2022-08-12T08:26:51.703Z,27.82
2022-08-12T08:27:51.686Z,27.83
2022-08-12T08:28:51.691Z,27.90
2022-08-12T08:29:51.657Z,27.83
2022-08-12T08:30:51.665Z,27.85
2022-08-12T08:31:51.630Z,27.87
2022-08-12T08:32:51.613Z,28.07
2022-08-12T08:34:04.733Z,28.07
2022-08-12T08:34:53.707Z,28.06
2022-08-12T08:35:54.272Z,28.16
2022-08-12T08:36:51.719Z,28.22
2022-08-12T08:37:51.553Z,28.22
2022-08-12T08:38:58.298Z,28.32
2022-08-12T08:39:51.623Z,28.13
2022-08-12T08:40:51.599Z,28.25
2022-08-12T08:42:16.165Z,28.22
2022-08-12T08:42:51.669Z,28.28
2022-08-12T08:43:51.490Z,28.32
2022-08-12T08:44:58.078Z,28.43
2022-08-12T08:45:51.459Z,28.50
2022-08-12T08:46:51.452Z,28.56
2022-08-12T08:47:51.421Z,28.61
2022-08-12T08:48:51.409Z,28.69
2022-08-12T08:49:51.397Z,28.59
2022-08-12T08:51:04.334Z,28.74
2022-08-12T08:51:51.423Z,28.81
2022-08-12T08:52:51.358Z,28.93
2022-08-12T08:53:51.909Z,29.06
2022-08-12T08:54:51.333Z,29.04
2022-08-12T08:56:04.522Z,29.07
2022-08-12T08:56:51.330Z,29.17
2022-08-12T08:57:51.313Z,29.15
2022-08-12T08:58:51.284Z,29.33
2022-08-12T08:59:51.657Z,29.33
2022-08-12T09:00:51.280Z,29.34
2022-08-12T09:01:51.333Z,29.46
2022-08-12T09:02:59.179Z,29.54
2022-08-12T09:05:08.252Z,29.66
2022-08-12T09:05:12.657Z,29.62
2022-08-12T09:06:02.045Z,29.63
2022-08-12T09:06:53.720Z,29.77
2022-08-12T09:08:11.938Z,29.80
2022-08-12T09:08:51.164Z,29.84
2022-08-12T09:10:02.398Z,29.92
2022-08-12T09:10:53.295Z,30.03
2022-08-12T09:12:07.414Z,30.13
2022-08-12T09:12:54.120Z,30.15
2022-08-12T09:14:51.485Z,30.20
2022-08-12T09:15:56.007Z,30.21
2022-08-12T09:16:51.263Z,30.24
2022-08-12T09:17:51.129Z,30.28
2022-08-12T09:18:52.589Z,30.33
2022-08-12T09:19:56.877Z,30.59
2022-08-12T09:20:51.062Z,30.74
2022-08-12T09:21:54.501Z,30.90
2022-08-12T09:22:51.205Z,30.95
2022-08-12T09:23:59.128Z,31.20
2022-08-12T09:24:51.012Z,31.42
2022-08-12T09:29:15.409Z,32.14
2022-08-12T09:30:15.087Z,32.28
2022-08-12T09:32:03.817Z,32.45
2022-08-12T09:32:31.540Z,32.63
2022-08-12T09:33:19.307Z,32.80
2022-08-12T09:34:25.523Z,32.94
2022-08-12T09:35:18.482Z,32.60
2022-08-12T09:36:15.012Z,32.36
2022-08-12T09:37:19.420Z,32.27
2022-08-12T09:38:28.097Z,32.41
2022-08-12T09:40:00.827Z,32.20
2022-08-12T09:41:01.739Z,32.43
2022-08-12T09:42:33.420Z,32.77
2022-08-12T09:42:40.434Z,33.22
2022-08-12T09:43:16.713Z,33.44
2022-08-12T09:44:39.250Z,33.58
2022-08-12T09:45:19.327Z,33.70
2022-08-12T09:46:22.347Z,33.67
2022-08-12T09:47:14.879Z,33.97
2022-08-12T09:48:19.871Z,34.06
2022-08-12T09:49:16.352Z,34.20
2022-08-12T09:50:20.271Z,34.32
2022-08-12T09:51:17.221Z,34.20
2022-08-12T09:52:14.853Z,34.03
2022-08-12T09:53:15.827Z,33.98
2022-08-12T09:54:33.358Z,34.22
2022-08-12T09:56:05.878Z,34.44
2022-08-12T09:56:58.451Z,34.38
2022-08-12T09:58:47.027Z,34.34
2022-08-12T09:58:56.620Z,34.45
2022-08-12T09:59:14.784Z,34.18
2022-08-12T10:00:26.083Z,34.00
2022-08-12T10:01:23.409Z,34.10
2022-08-12T10:02:52.945Z,33.51
2022-08-12T10:03:32.189Z,33.30
2022-08-12T10:04:14.949Z,33.35
2022-08-12T10:05:17.894Z,33.26
2022-08-12T10:06:26.906Z,33.60
2022-08-12T10:07:22.989Z,33.74
2022-08-12T10:08:14.721Z,33.92
2022-08-12T10:09:14.738Z,34.16
2022-08-12T10:10:24.598Z,34.19
2022-08-12T10:11:18.570Z,34.42
2022-08-12T10:12:14.695Z,34.64
2022-08-12T10:13:17.103Z,34.67
2022-08-12T10:14:14.712Z,34.53
2022-08-12T10:15:15.175Z,34.73
2022-08-12T10:16:18.541Z,34.70
2022-08-12T10:17:14.670Z,34.63
2022-08-12T10:18:14.676Z,34.15
2022-08-12T10:19:16.965Z,34.13
2022-08-12T10:20:14.656Z,34.45
2022-08-12T10:21:14.678Z,34.63
2022-08-12T10:22:16.895Z,34.70
2022-08-12T10:23:14.639Z,34.91
2022-08-12T10:24:14.634Z,34.80
2022-08-12T10:25:16.397Z,34.72
2022-08-12T10:26:35.119Z,33.84
2022-08-12T10:27:15.845Z,33.93
2022-08-12T10:28:24.855Z,34.18
2022-08-12T10:30:01.081Z,34.40
2022-08-12T10:30:42.092Z,34.60
2022-08-12T10:31:15.998Z,34.80
2022-08-12T10:32:21.651Z,34.85
2022-08-12T10:33:18.204Z,34.79
2022-08-12T10:34:25.885Z,34.80
2022-08-12T10:35:14.602Z,34.95
2022-08-12T10:36:14.575Z,35.12
2022-08-12T10:37:58.166Z,35.31
2022-08-12T10:38:34.507Z,35.24
2022-08-12T10:40:01.131Z,35.35
2022-08-12T10:40:20.032Z,35.53
2022-08-12T10:41:19.071Z,35.76
2022-08-12T10:42:14.573Z,35.53
2022-08-12T10:43:16.719Z,35.21
2022-08-12T10:44:17.481Z,34.73
2022-08-12T10:45:18.280Z,34.26
2022-08-12T10:46:14.567Z,34.15
2022-08-12T10:47:26.615Z,34.22
2022-08-12T10:48:21.979Z,34.42
2022-08-12T10:50:10.499Z,34.52
2022-08-12T10:50:33.901Z,34.52
2022-08-12T10:52:02.850Z,34.78
2022-08-12T10:52:47.124Z,35.05
2022-08-12T10:53:19.572Z,35.14
2022-08-12T10:54:14.515Z,35.41
2022-08-12T10:55:14.488Z,35.58
2022-08-12T10:56:14.499Z,35.47
2022-08-12T10:57:18.557Z,35.04
2022-08-12T10:58:28.363Z,34.66
2022-08-12T10:59:14.460Z,34.76
2022-08-12T11:00:34.161Z,34.97
2022-08-12T11:01:49.575Z,35.01
2022-08-12T11:04:19.619Z,34.97
2022-08-12T11:04:23.264Z,35.17
2022-08-12T11:04:37.177Z,35.05
2022-08-12T11:07:03.071Z,35.14
2022-08-12T11:07:08.652Z,35.17
2022-08-12T11:08:34.897Z,35.28
2022-08-12T11:08:38.073Z,35.17
2022-08-12T11:09:14.487Z,35.20
2022-08-12T11:10:14.490Z,35.17
2022-08-12T11:11:16.696Z,35.14
2022-08-12T11:12:56.115Z,35.19
2022-08-12T11:13:14.393Z,35.31
2022-08-12T11:14:49.515Z,35.46
2022-08-12T11:15:19.286Z,35.51
2022-08-12T11:16:22.175Z,35.46
2022-08-12T11:17:43.198Z,35.41
2022-08-12T11:18:18.386Z,35.46
2022-08-12T11:19:14.356Z,35.38
2022-08-12T11:20:15.105Z,35.36
2022-08-12T11:21:15.909Z,35.60
2022-08-12T11:22:14.400Z,35.48
2022-08-12T11:23:25.190Z,35.39
2022-08-12T11:24:30.276Z,35.41
2022-08-12T11:25:14.347Z,35.28
2022-08-12T11:26:14.326Z,35.38
2022-08-12T11:27:14.317Z,35.38
2022-08-12T11:28:14.584Z,35.48
2022-08-12T11:29:22.533Z,35.66
2022-08-12T11:30:31.529Z,35.84
2022-08-12T11:31:14.725Z,36.06
2022-08-12T11:32:14.321Z,36.17
2022-08-12T11:33:24.074Z,36.26
2022-08-12T11:34:53.780Z,36.15
2022-08-12T11:35:14.276Z,36.14
2022-08-12T11:36:14.620Z,35.91
2022-08-12T11:37:25.795Z,35.81
2022-08-12T11:38:14.227Z,35.69
2022-08-12T11:39:14.246Z,35.47
2022-08-12T11:40:14.226Z,35.48
2022-08-12T11:41:14.211Z,35.41
2022-08-12T11:42:14.224Z,35.42
2022-08-12T11:43:19.918Z,35.28
2022-08-12T11:44:35.651Z,35.34
2022-08-12T11:45:16.281Z,35.51
2022-08-12T11:46:14.198Z,35.73
2022-08-12T11:47:14.201Z,35.70
2022-08-12T11:48:15.208Z,35.69
2022-08-12T11:49:26.862Z,35.53
2022-08-12T11:50:19.737Z,35.35
2022-08-12T11:51:14.162Z,35.41
2022-08-12T11:52:17.242Z,35.42
2022-08-12T11:53:59.071Z,34.91
2022-08-12T11:54:14.790Z,34.83
2022-08-12T11:55:14.832Z,34.99
2022-08-12T11:56:14.134Z,35.13
2022-08-12T11:58:14.643Z,35.39
2022-08-12T11:59:20.478Z,35.53
2022-08-12T12:02:01.305Z,35.97
2022-08-12T12:02:19.227Z,35.92
2022-08-12T12:03:17.314Z,36.02
2022-08-12T12:04:29.226Z,36.07
2022-08-12T12:05:14.231Z,36.22
2022-08-12T12:06:16.386Z,36.22
2022-08-12T12:07:14.123Z,36.29
2022-08-12T12:08:38.416Z,36.29
2022-08-12T12:09:14.342Z,36.29
2022-08-12T12:10:14.238Z,36.32
2022-08-12T12:11:14.169Z,36.17
2022-08-12T12:12:14.163Z,36.15
2022-08-12T12:14:05.350Z,36.22
2022-08-12T12:14:14.142Z,35.84
2022-08-12T12:15:14.279Z,35.28
2022-08-12T12:16:14.372Z,35.39
2022-08-12T12:17:14.168Z,35.75
2022-08-12T12:18:14.035Z,35.88
2022-08-12T12:19:14.128Z,36.07
2022-08-12T12:20:14.064Z,36.36
2022-08-12T12:21:14.067Z,36.33
2022-08-12T12:22:15.777Z,36.54
2022-08-12T12:23:28.825Z,36.66
2022-08-12T12:24:14.002Z,36.57
2022-08-12T12:25:14.484Z,36.52
2022-08-12T12:26:35.491Z,36.45
2022-08-12T12:27:19.289Z,36.54
2022-08-12T12:28:19.997Z,36.59
2022-08-12T12:30:20.043Z,36.52
2022-08-12T12:30:25.414Z,36.60
2022-08-12T12:31:15.170Z,36.23
2022-08-12T12:32:13.967Z,35.98
2022-08-12T12:33:18.121Z,36.07
2022-08-12T12:34:30.449Z,36.20
2022-08-12T12:36:05.983Z,36.45
2022-08-12T12:36:20.399Z,36.76
2022-08-12T12:37:16.147Z,37.04
2022-08-12T12:38:13.938Z,37.17
2022-08-12T12:39:13.955Z,37.25
2022-08-12T12:40:14.023Z,37.39
2022-08-12T12:41:14.272Z,37.47
2022-08-12T12:42:45.611Z,37.37
2022-08-12T12:43:14.063Z,37.39
2022-08-12T12:44:25.786Z,37.42
2022-08-12T12:45:25.900Z,37.51
2022-08-12T12:46:13.898Z,37.55
2022-08-12T12:47:28.887Z,37.62
2022-08-12T12:48:13.909Z,37.58
2022-08-12T12:49:15.278Z,37.55
2022-08-12T12:50:34.826Z,37.72
2022-08-12T12:51:13.877Z,37.98
2022-08-12T12:52:19.071Z,38.20
2022-08-12T12:54:05.121Z,38.29
2022-08-12T12:54:13.858Z,38.42
2022-08-12T12:55:13.855Z,38.54
2022-08-12T12:56:13.848Z,38.57
2022-08-12T12:57:13.846Z,38.42
2022-08-12T12:58:13.833Z,38.11
2022-08-12T12:59:54.996Z,38.04